createdAt,value
2019-02-25T00:00:46.362Z,32.81
2019-02-25T00:01:46.362Z,32.61
2019-02-25T00:02:46.425Z,33.28
2019-02-25T00:03:46.409Z,33.66
2019-02-25T00:05:07.429Z,33.57
2019-02-25T00:05:46.422Z,33.76
2019-02-25T00:06:46.446Z,33.76
2019-02-25T00:07:46.613Z,34.05
2019-02-25T00:08:46.473Z,34.23
2019-02-25T00:09:46.497Z,34.23
2019-02-25T00:12:49.900Z,34.31
2019-02-25T00:14:11.075Z,34.52
2019-02-25T00:14:49.935Z,34.79
2019-02-25T00:15:49.969Z,34.69
2019-02-25T00:17:11.004Z,35.27
2019-02-25T00:17:49.994Z,34.79
2019-02-25T00:18:50.001Z,34.79
2019-02-25T00:19:50.038Z,34.98
2019-02-25T00:20:50.034Z,34.69
2019-02-25T00:21:50.059Z,35.08
2019-02-25T00:23:11.080Z,34.88
2019-02-25T00:23:50.090Z,34.98
2019-02-25T00:24:50.102Z,35.46
2019-02-25T00:25:50.117Z,34.81
2019-02-25T00:26:50.182Z,34.23
2019-02-25T00:27:50.145Z,34.42
2019-02-25T00:29:11.189Z,34.42
2019-02-25T00:29:50.178Z,33.85
2019-02-25T00:30:50.198Z,34.41
2019-02-25T00:31:50.210Z,34.79
2019-02-25T00:32:50.217Z,34.61
2019-02-25T00:33:50.243Z,34.22
2019-02-25T00:35:11.284Z,34.52
2019-02-25T00:35:50.278Z,34.50
2019-02-25T00:36:50.321Z,34.50
2019-02-25T00:37:50.298Z,34.22
2019-02-25T00:38:50.327Z,34.42
2019-02-25T00:39:50.345Z,34.05
2019-02-25T00:41:11.388Z,34.33
2019-02-25T00:41:50.381Z,34.23
2019-02-25T00:42:50.381Z,34.05
2019-02-25T00:43:50.407Z,34.14
2019-02-25T00:44:50.422Z,34.03
2019-02-25T00:45:50.437Z,34.12
2019-02-25T00:47:11.499Z,34.12
2019-02-25T00:47:50.488Z,34.50
2019-02-25T00:48:50.484Z,34.14
2019-02-25T00:49:50.515Z,34.31
2019-02-25T00:50:50.506Z,34.31
2019-02-25T00:51:50.564Z,34.31
2019-02-25T00:53:11.615Z,34.22
2019-02-25T00:53:50.554Z,34.22
2019-02-25T00:54:50.597Z,34.88
2019-02-25T00:55:50.598Z,34.69
2019-02-25T00:56:50.610Z,34.69
2019-02-25T00:57:50.670Z,34.79
2019-02-25T00:59:11.653Z,34.60
2019-02-25T00:59:50.693Z,34.41
2019-02-25T01:00:50.676Z,34.31
2019-02-25T01:01:50.712Z,34.69
2019-02-25T01:02:50.703Z,34.22
2019-02-25T01:03:50.727Z,34.41
2019-02-25T01:05:11.754Z,34.50
2019-02-25T01:05:50.754Z,34.79
2019-02-25T01:06:50.770Z,34.60
2019-02-25T01:07:50.790Z,34.22
2019-02-25T01:08:50.803Z,34.22
2019-02-25T01:09:50.829Z,34.69
2019-02-25T01:11:11.873Z,34.98
2019-02-25T01:11:50.905Z,34.31
2019-02-25T01:12:50.866Z,34.31
2019-02-25T01:13:50.903Z,34.41
2019-02-25T01:14:50.914Z,34.31
2019-02-25T01:15:50.917Z,34.22
2019-02-25T01:17:11.954Z,34.22
2019-02-25T01:17:50.952Z,34.88
2019-02-25T01:22:14.914Z,34.79
2019-02-25T01:23:15.078Z,34.79
2019-02-25T01:24:35.956Z,34.60
2019-02-25T01:50:41.414Z,35.44
2019-02-25T01:51:41.432Z,35.72
2019-02-25T01:52:41.451Z,36.01
2019-02-25T01:53:41.470Z,35.91
2019-02-25T01:55:02.485Z,35.91
2019-02-25T01:55:41.507Z,35.82
2019-02-25T01:56:41.501Z,35.91
2019-02-25T01:57:41.535Z,35.91
2019-02-25T01:58:41.577Z,35.91
2019-02-25T01:59:41.590Z,35.72
2019-02-25T02:01:02.577Z,35.72
2019-02-25T02:01:41.584Z,35.53
2019-02-25T02:02:41.602Z,34.96
2019-02-25T02:03:41.608Z,35.63
2019-02-25T02:04:41.678Z,35.15
2019-02-25T02:05:41.648Z,35.25
2019-02-25T02:07:02.677Z,35.25
2019-02-25T02:07:41.657Z,35.13
2019-02-25T02:08:41.734Z,35.53
2019-02-25T02:09:41.728Z,35.35
2019-02-25T02:10:41.734Z,35.04
2019-02-25T02:11:41.770Z,34.85
2019-02-25T02:13:02.759Z,34.87
2019-02-25T02:13:41.777Z,34.77
2019-02-25T02:14:41.833Z,34.77
2019-02-25T02:15:41.789Z,35.13
2019-02-25T02:16:41.812Z,34.87
2019-02-25T02:17:41.818Z,34.48
2019-02-25T02:19:02.854Z,34.87
2019-02-25T02:19:41.850Z,34.77
2019-02-25T02:20:41.864Z,34.77
2019-02-25T02:21:41.952Z,34.77
2019-02-25T02:22:41.898Z,34.94
2019-02-25T02:23:41.919Z,34.96
2019-02-25T02:25:02.944Z,34.96
2019-02-25T02:25:41.937Z,34.67
2019-02-25T02:26:41.967Z,34.87
2019-02-25T02:27:41.980Z,34.67
2019-02-25T02:28:41.986Z,34.66
2019-02-25T02:29:41.997Z,35.06
2019-02-25T02:31:03.044Z,34.94
2019-02-25T02:31:42.182Z,34.77
2019-02-25T02:32:42.052Z,35.13
2019-02-25T02:33:42.063Z,34.58
2019-02-25T02:34:42.129Z,34.94
2019-02-25T02:35:42.103Z,34.85
2019-02-25T02:37:03.115Z,34.87
2019-02-25T02:37:42.135Z,34.75
2019-02-25T02:38:42.138Z,35.15
2019-02-25T02:39:42.171Z,34.66
2019-02-25T02:40:42.167Z,34.87
2019-02-25T02:41:42.324Z,34.94
2019-02-25T02:43:03.206Z,35.44
2019-02-25T02:43:42.220Z,35.25
2019-02-25T02:44:42.277Z,34.96
2019-02-25T02:45:42.245Z,34.94
2019-02-25T02:46:42.290Z,34.94
2019-02-25T02:47:42.295Z,35.23
2019-02-25T02:49:03.297Z,35.23
2019-02-25T02:49:42.306Z,35.13
2019-02-25T02:50:42.342Z,35.04
2019-02-25T02:51:42.333Z,34.85
2019-02-25T02:52:42.346Z,35.23
2019-02-25T02:53:42.369Z,35.13
2019-02-25T02:55:03.388Z,35.23
2019-02-25T02:55:42.389Z,34.85
2019-02-25T02:56:42.446Z,34.75
2019-02-25T02:57:42.409Z,34.75
2019-02-25T02:58:42.444Z,34.94
2019-02-25T02:59:42.503Z,34.75
2019-02-25T03:01:03.530Z,34.56
2019-02-25T03:01:42.492Z,34.66
2019-02-25T03:02:42.496Z,34.94
2019-02-25T03:03:42.502Z,35.42
2019-02-25T03:04:42.520Z,35.52
2019-02-25T03:05:42.529Z,34.75
2019-02-25T03:07:03.559Z,34.85
2019-02-25T03:07:42.567Z,35.04
2019-02-25T03:08:42.582Z,34.94
2019-02-25T03:09:42.705Z,34.94
2019-02-25T03:10:42.616Z,34.85
2019-02-25T03:11:42.629Z,34.75
2019-02-25T03:13:03.696Z,34.75
2019-02-25T03:13:42.646Z,35.13
2019-02-25T03:14:42.677Z,35.13
2019-02-25T03:15:42.694Z,35.21
2019-02-25T03:16:42.686Z,35.13
2019-02-25T03:17:42.714Z,35.04
2019-02-25T03:19:03.740Z,34.94
2019-02-25T03:19:42.806Z,34.75
2019-02-25T03:20:42.752Z,34.47
2019-02-25T03:21:42.772Z,34.75
2019-02-25T03:22:42.782Z,34.75
2019-02-25T03:23:42.795Z,34.75
2019-02-25T03:25:03.832Z,35.04
2019-02-25T03:25:42.829Z,34.56
2019-02-25T03:26:42.835Z,34.20
2019-02-25T03:27:42.850Z,34.09
2019-02-25T03:28:42.867Z,34.18
2019-02-25T03:29:42.913Z,34.18
2019-02-25T03:31:03.922Z,34.28
2019-02-25T03:31:42.938Z,34.18
2019-02-25T03:32:42.938Z,34.28
2019-02-25T03:33:43.081Z,34.28
2019-02-25T03:34:42.953Z,34.85
2019-02-25T03:35:43.002Z,34.85
2019-02-25T03:37:04.011Z,34.66
2019-02-25T03:37:43.013Z,34.85
2019-02-25T03:38:43.016Z,34.56
2019-02-25T03:39:43.077Z,34.56
2019-02-25T03:40:43.039Z,34.85
2019-02-25T03:41:43.102Z,34.94
2019-02-25T03:43:04.094Z,35.13
2019-02-25T03:43:43.082Z,35.33
2019-02-25T03:44:43.119Z,35.04
2019-02-25T03:45:43.122Z,35.04
2019-02-25T03:46:43.149Z,34.85
2019-02-25T03:47:43.193Z,34.85
2019-02-25T03:49:04.177Z,34.85
2019-02-25T03:49:43.173Z,34.94
2019-02-25T03:50:43.191Z,34.83
2019-02-25T03:51:43.312Z,34.85
2019-02-25T03:52:43.222Z,34.74
2019-02-25T03:53:43.244Z,34.83
2019-02-25T03:55:04.268Z,34.74
2019-02-25T03:55:43.263Z,34.64
2019-02-25T03:56:43.289Z,34.83
2019-02-25T03:57:43.298Z,34.56
2019-02-25T03:58:43.309Z,33.80
2019-02-25T03:59:43.340Z,34.55
2019-02-25T04:01:04.352Z,34.45
2019-02-25T04:01:43.510Z,34.47
2019-02-25T04:02:43.385Z,34.17
2019-02-25T04:03:43.393Z,34.36
2019-02-25T04:04:43.451Z,34.07
2019-02-25T04:05:43.417Z,34.83
2019-02-25T04:07:04.434Z,34.55
2019-02-25T04:07:43.439Z,34.92
2019-02-25T04:08:43.473Z,34.83
2019-02-25T04:09:43.484Z,34.17
2019-02-25T04:10:43.502Z,34.17
2019-02-25T04:11:43.610Z,34.18
2019-02-25T04:13:04.527Z,33.99
2019-02-25T04:13:43.554Z,34.07
2019-02-25T04:14:43.550Z,33.97
2019-02-25T04:15:43.566Z,34.07
2019-02-25T04:16:43.595Z,34.38
2019-02-25T04:17:43.592Z,34.07
2019-02-25T04:19:04.614Z,34.07
2019-02-25T04:19:43.619Z,33.88
2019-02-25T04:20:43.629Z,33.78
2019-02-25T04:21:43.650Z,33.50
2019-02-25T04:22:43.684Z,33.59
2019-02-25T04:23:43.667Z,33.12
2019-02-25T04:25:04.699Z,33.12
2019-02-25T04:25:43.696Z,32.74
2019-02-25T04:26:43.724Z,32.85
2019-02-25T04:27:43.731Z,32.55
2019-02-25T04:28:43.753Z,32.45
2019-02-25T04:29:43.756Z,32.74
2019-02-25T04:31:04.860Z,32.56
2019-02-25T04:31:43.795Z,32.47
2019-02-25T04:32:43.802Z,31.61
2019-02-25T04:33:43.827Z,32.64
2019-02-25T04:34:43.832Z,33.12
2019-02-25T04:35:43.850Z,33.22
2019-02-25T04:37:04.877Z,33.40
2019-02-25T04:37:43.877Z,33.40
2019-02-25T04:38:43.901Z,33.80
2019-02-25T04:39:43.937Z,33.90
2019-02-25T04:40:43.954Z,33.97
2019-02-25T04:41:43.948Z,34.18
2019-02-25T04:43:04.975Z,34.26
2019-02-25T04:43:43.967Z,34.07
2019-02-25T04:44:43.986Z,33.78
2019-02-25T04:45:43.993Z,33.97
2019-02-25T04:46:44.002Z,33.69
2019-02-25T04:47:44.035Z,33.78
2019-02-25T04:49:05.044Z,33.50
2019-02-25T04:49:44.084Z,33.78
2019-02-25T04:50:44.061Z,33.69
2019-02-25T04:51:44.087Z,33.50
2019-02-25T04:52:44.164Z,33.59
2019-02-25T04:53:44.111Z,33.78
2019-02-25T04:55:05.138Z,33.69
2019-02-25T04:55:44.144Z,33.97
2019-02-25T04:56:44.154Z,33.78
2019-02-25T04:57:44.192Z,33.59
2019-02-25T04:58:44.183Z,33.50
2019-02-25T05:01:47.527Z,33.22
2019-02-25T05:02:26.493Z,32.93
2019-02-25T05:03:26.511Z,33.40
2019-02-25T05:04:26.529Z,33.31
2019-02-25T05:05:26.546Z,33.03
2019-02-25T05:06:26.565Z,33.03
2019-02-25T05:07:47.590Z,33.22
2019-02-25T05:08:26.587Z,33.22
2019-02-25T05:09:26.599Z,33.31
2019-02-25T05:10:26.612Z,33.40
2019-02-25T05:11:26.649Z,33.69
2019-02-25T05:12:26.633Z,33.69
2019-02-25T05:13:47.662Z,33.97
2019-02-25T05:14:26.679Z,33.69
2019-02-25T05:15:26.712Z,34.17
2019-02-25T05:16:26.764Z,33.78
2019-02-25T05:17:26.737Z,34.07
2019-02-25T05:18:26.720Z,33.97
2019-02-25T05:19:47.761Z,34.07
2019-02-25T05:20:26.771Z,34.17
2019-02-25T05:21:26.781Z,34.05
2019-02-25T05:22:26.783Z,34.07
2019-02-25T05:23:26.820Z,34.07
2019-02-25T05:24:26.861Z,33.96
2019-02-25T05:25:47.846Z,33.97
2019-02-25T05:26:26.841Z,33.97
2019-02-25T05:27:26.890Z,33.96
2019-02-25T05:28:26.866Z,33.86
2019-02-25T05:29:26.877Z,33.88
2019-02-25T05:30:26.896Z,33.96
2019-02-25T05:31:47.929Z,33.97
2019-02-25T05:32:26.937Z,34.05
2019-02-25T05:33:26.962Z,34.15
2019-02-25T05:34:27.101Z,34.24
2019-02-25T05:35:26.970Z,34.24
2019-02-25T05:36:27.002Z,33.86
2019-02-25T05:37:48.032Z,34.05
2019-02-25T05:38:27.020Z,33.86
2019-02-25T05:39:27.026Z,33.96
2019-02-25T05:40:27.037Z,33.78
2019-02-25T05:41:27.044Z,33.39
2019-02-25T05:42:27.129Z,33.39
2019-02-25T05:43:48.282Z,33.40
2019-02-25T05:44:27.089Z,33.01
2019-02-25T05:45:27.114Z,33.01
2019-02-25T05:46:27.156Z,33.03
2019-02-25T05:47:27.142Z,32.91
2019-02-25T05:48:27.156Z,32.82
2019-02-25T05:49:48.224Z,33.12
2019-02-25T05:50:27.186Z,32.35
2019-02-25T05:51:27.202Z,33.03
2019-02-25T05:52:27.229Z,32.55
2019-02-25T05:53:27.223Z,32.35
2019-02-25T05:54:27.236Z,32.53
2019-02-25T05:55:48.259Z,32.43
2019-02-25T05:56:27.251Z,32.72
2019-02-25T05:57:27.301Z,32.45
2019-02-25T05:58:27.301Z,32.15
2019-02-25T05:59:27.410Z,32.34
2019-02-25T06:00:27.312Z,32.24
2019-02-25T06:01:48.364Z,32.15
2019-02-25T06:02:27.387Z,32.06
2019-02-25T06:03:27.374Z,32.06
2019-02-25T06:04:27.370Z,32.17
2019-02-25T06:05:27.381Z,32.43
2019-02-25T06:06:27.410Z,32.34
2019-02-25T06:07:48.419Z,32.17
2019-02-25T06:08:27.433Z,32.17
2019-02-25T06:09:27.461Z,32.17
2019-02-25T06:10:27.508Z,31.87
2019-02-25T06:11:27.461Z,31.79
2019-02-25T06:12:27.524Z,31.88
2019-02-25T06:13:48.541Z,31.98
2019-02-25T06:14:27.501Z,31.98
2019-02-25T06:15:27.528Z,31.87
2019-02-25T06:16:27.598Z,32.24
2019-02-25T06:17:27.563Z,32.62
2019-02-25T06:18:27.563Z,32.43
2019-02-25T06:19:48.595Z,32.07
2019-02-25T06:20:27.595Z,32.62
2019-02-25T06:21:27.633Z,32.43
2019-02-25T06:22:27.666Z,32.62
2019-02-25T06:23:27.635Z,33.01
2019-02-25T06:24:27.658Z,33.01
2019-02-25T06:25:48.683Z,33.01
2019-02-25T06:26:27.707Z,33.22
2019-02-25T06:27:30.679Z,32.93
2019-02-25T06:28:28.506Z,32.35
2019-02-25T06:29:27.732Z,32.55
2019-02-25T06:30:27.743Z,32.62
2019-02-25T06:31:48.763Z,32.55
2019-02-25T06:32:30.715Z,32.53
2019-02-25T06:33:27.797Z,32.35
2019-02-25T06:34:27.901Z,32.15
2019-02-25T06:35:27.820Z,32.62
2019-02-25T06:36:27.826Z,33.01
2019-02-25T06:37:48.887Z,33.22
2019-02-25T06:38:27.873Z,32.91
2019-02-25T06:39:27.896Z,33.48
2019-02-25T06:40:27.904Z,33.20
2019-02-25T06:41:27.957Z,32.45
2019-02-25T06:42:27.908Z,32.64
2019-02-25T06:43:49.021Z,32.35
2019-02-25T06:44:28.150Z,32.07
2019-02-25T06:45:27.963Z,32.72
2019-02-25T06:46:27.995Z,32.62
2019-02-25T06:47:28.063Z,33.10
2019-02-25T06:48:28.010Z,33.01
2019-02-25T06:49:49.037Z,32.83
2019-02-25T06:52:10.000Z,32.17
2019-02-25T06:53:10.013Z,32.62
2019-02-25T06:54:10.042Z,32.55
2019-02-25T06:55:10.055Z,32.43
2019-02-25T06:56:31.074Z,32.17
2019-02-25T06:57:10.087Z,32.72
2019-02-25T06:58:10.125Z,33.01
2019-02-25T06:59:10.108Z,33.20
2019-02-25T07:00:10.143Z,33.01
2019-02-25T07:04:18.035Z,33.10
2019-02-25T07:04:57.076Z,33.10
2019-02-25T07:05:57.034Z,33.48
2019-02-25T07:06:57.051Z,33.48
2019-02-25T07:07:57.069Z,33.78
2019-02-25T07:08:57.087Z,33.03
2019-02-25T07:10:18.112Z,33.58
2019-02-25T07:10:57.102Z,33.78
2019-02-25T07:11:57.152Z,33.50
2019-02-25T07:12:57.131Z,32.83
2019-02-25T07:13:57.153Z,33.78
2019-02-25T07:14:57.163Z,33.69
2019-02-25T07:16:18.183Z,33.78
2019-02-25T07:16:57.346Z,33.96
2019-02-25T07:17:57.200Z,33.96
2019-02-25T07:18:57.212Z,33.88
2019-02-25T07:19:57.276Z,33.22
2019-02-25T07:20:57.265Z,33.22
2019-02-25T07:22:18.285Z,33.40
2019-02-25T07:22:57.279Z,33.67
2019-02-25T07:23:57.419Z,33.96
2019-02-25T07:24:57.317Z,33.96
2019-02-25T07:25:57.335Z,34.05
2019-02-25T07:26:57.384Z,33.97
2019-02-25T07:28:18.416Z,33.78
2019-02-25T07:28:57.356Z,33.50
2019-02-25T07:29:57.397Z,33.12
2019-02-25T07:30:57.392Z,33.12
2019-02-25T07:31:57.412Z,33.12
2019-02-25T07:32:57.447Z,33.12
2019-02-25T07:34:18.446Z,33.12
2019-02-25T07:34:57.452Z,33.03
2019-02-25T07:35:57.473Z,33.12
2019-02-25T07:36:57.556Z,32.93
2019-02-25T07:37:57.518Z,33.12
2019-02-25T07:38:57.509Z,33.22
2019-02-25T07:40:18.540Z,33.12
2019-02-25T07:40:57.549Z,32.74
2019-02-25T07:41:57.557Z,32.55
2019-02-25T07:42:57.573Z,32.83
2019-02-25T07:43:57.605Z,33.03
2019-02-25T07:44:57.605Z,33.12
2019-02-25T07:46:18.636Z,33.22
2019-02-25T07:46:57.703Z,33.03
2019-02-25T07:47:57.693Z,32.45
2019-02-25T07:48:57.672Z,32.93
2019-02-25T07:49:57.688Z,32.28
2019-02-25T07:50:57.698Z,32.18
2019-02-25T07:52:18.722Z,32.74
2019-02-25T07:52:57.713Z,32.66
2019-02-25T07:53:57.750Z,32.37
2019-02-25T07:54:57.776Z,32.47
2019-02-25T07:56:02.418Z,32.28
2019-02-25T07:56:57.834Z,32.07
2019-02-25T07:58:18.801Z,32.07
2019-02-25T07:58:57.822Z,31.99
2019-02-25T07:59:57.855Z,32.47
2019-02-25T08:00:57.876Z,32.28
2019-02-25T08:01:57.884Z,32.28
2019-02-25T08:02:57.883Z,32.39
2019-02-25T08:04:18.893Z,32.39
2019-02-25T08:04:57.899Z,31.90
2019-02-25T08:05:57.904Z,31.80
2019-02-25T08:06:57.936Z,31.71
2019-02-25T08:07:57.943Z,31.44
2019-02-25T08:08:57.978Z,31.45
2019-02-25T08:10:18.982Z,30.98
2019-02-25T08:10:57.994Z,30.50
2019-02-25T08:11:58.097Z,30.32
2019-02-25T08:12:58.029Z,29.56
2019-02-25T08:13:58.041Z,29.56
2019-02-25T08:14:58.073Z,29.56
2019-02-25T08:16:19.105Z,28.81
2019-02-25T08:16:58.083Z,28.61
2019-02-25T08:17:58.111Z,28.62
2019-02-25T08:18:58.133Z,28.43
2019-02-25T08:19:58.145Z,28.62
2019-02-25T08:20:58.153Z,28.24
2019-02-25T08:22:19.184Z,28.62
2019-02-25T08:22:58.194Z,28.62
2019-02-25T08:23:58.210Z,28.53
2019-02-25T08:24:58.303Z,28.43
2019-02-25T08:25:58.240Z,29.29
2019-02-25T08:26:58.261Z,29.58
2019-02-25T08:28:19.285Z,28.92
2019-02-25T08:28:58.503Z,28.72
2019-02-25T08:29:58.317Z,28.54
2019-02-25T08:30:58.314Z,28.54
2019-02-25T08:31:58.379Z,28.24
2019-02-25T08:32:58.362Z,28.53
2019-02-25T08:34:19.395Z,28.43
2019-02-25T08:34:58.380Z,28.53
2019-02-25T08:35:58.405Z,28.72
2019-02-25T08:37:02.298Z,28.62
2019-02-25T08:37:58.432Z,28.53
2019-02-25T08:38:58.456Z,28.53
2019-02-25T08:40:19.497Z,28.53
2019-02-25T08:40:58.501Z,28.44
2019-02-25T08:41:58.560Z,28.06
2019-02-25T08:42:58.525Z,27.59
2019-02-25T08:43:58.565Z,27.78
2019-02-25T08:44:58.562Z,27.59
2019-02-25T08:46:19.606Z,27.68
2019-02-25T08:46:58.585Z,27.78
2019-02-25T08:47:58.622Z,27.60
2019-02-25T08:48:58.731Z,27.22
2019-02-25T08:49:58.648Z,27.39
2019-02-25T08:50:58.657Z,27.39
2019-02-25T08:52:19.695Z,27.39
2019-02-25T08:52:58.701Z,27.01
2019-02-25T08:53:58.842Z,26.93
2019-02-25T08:54:58.729Z,26.55
2019-02-25T08:55:58.762Z,26.34
2019-02-25T08:56:58.761Z,26.82
2019-02-25T08:58:19.815Z,26.92
2019-02-25T08:58:58.805Z,27.22
2019-02-25T08:59:58.815Z,26.74
2019-02-25T09:00:58.824Z,26.74
2019-02-25T09:01:58.888Z,26.63
2019-02-25T09:02:58.892Z,26.74
2019-02-25T09:04:19.887Z,26.45
2019-02-25T09:04:58.914Z,26.45
2019-02-25T09:05:58.937Z,26.55
2019-02-25T09:06:58.930Z,26.55
2019-02-25T09:07:58.954Z,26.55
2019-02-25T09:08:58.978Z,26.35
2019-02-25T09:10:20.013Z,25.89
2019-02-25T09:10:59.019Z,25.71
2019-02-25T09:11:59.021Z,24.69
2019-02-25T09:12:59.064Z,23.84
2019-02-25T09:13:59.123Z,23.18
2019-02-25T09:14:59.075Z,22.60
2019-02-25T09:16:20.099Z,22.77
2019-02-25T09:16:59.112Z,23.44
2019-02-25T09:17:59.129Z,24.21
2019-02-25T09:18:59.150Z,24.30
2019-02-25T09:19:59.165Z,24.40
2019-02-25T09:20:59.178Z,24.19
2019-02-25T09:22:20.217Z,24.49
2019-02-25T09:22:59.244Z,24.58
2019-02-25T09:23:59.311Z,24.85
2019-02-25T09:24:59.262Z,24.77
2019-02-25T09:25:59.286Z,24.95
2019-02-25T09:26:59.316Z,25.24
2019-02-25T09:28:20.329Z,25.14
2019-02-25T09:28:59.387Z,25.15
2019-02-25T09:29:59.355Z,25.24
2019-02-25T09:30:59.393Z,25.71
2019-02-25T09:31:59.409Z,25.90
2019-02-25T09:32:59.408Z,26.29
2019-02-25T09:34:20.439Z,26.39
2019-02-25T09:34:59.445Z,26.00
2019-02-25T09:35:59.449Z,26.39
2019-02-25T09:36:59.489Z,26.11
2019-02-25T09:37:59.490Z,25.82
2019-02-25T09:38:59.521Z,26.29
2019-02-25T09:40:20.588Z,25.71
2019-02-25T09:40:59.564Z,26.40
2019-02-25T09:41:59.565Z,26.10
2019-02-25T09:42:59.588Z,26.48
2019-02-25T09:43:59.603Z,25.81
2019-02-25T09:44:59.611Z,25.89
2019-02-25T09:46:20.661Z,26.37
2019-02-25T09:46:59.649Z,26.18
2019-02-25T09:47:59.670Z,26.57
2019-02-25T09:48:59.697Z,26.29
2019-02-25T09:51:42.067Z,25.52
2019-02-25T09:53:03.087Z,25.62
2019-02-25T09:53:42.091Z,25.71
2019-02-25T09:54:42.112Z,25.71
2019-02-25T09:55:42.184Z,26.10
2019-02-25T09:56:42.139Z,25.81
2019-02-25T09:57:42.170Z,26.10
2019-02-25T09:59:03.205Z,26.29
2019-02-25T09:59:42.215Z,26.10
2019-02-25T10:00:42.219Z,26.09
2019-02-25T10:01:42.259Z,26.19
2019-02-25T10:02:42.246Z,25.93
2019-02-25T10:03:42.287Z,25.10
2019-02-25T10:05:03.370Z,24.05
2019-02-25T10:05:42.320Z,22.92
2019-02-25T10:06:42.338Z,22.72
2019-02-25T10:07:42.357Z,22.24
2019-02-25T10:08:42.377Z,22.32
2019-02-25T10:09:42.393Z,23.46
2019-02-25T10:20:13.942Z,23.49
2019-02-25T10:21:13.986Z,23.28
2019-02-25T10:22:14.007Z,23.00
2019-02-25T10:23:14.153Z,23.01
2019-02-25T10:24:14.037Z,22.45
2019-02-25T10:25:35.096Z,21.12
2019-02-25T10:26:14.063Z,20.83
2019-02-25T10:28:56.063Z,21.20
2019-02-25T10:29:56.087Z,22.15
2019-02-25T10:30:56.134Z,22.81
2019-02-25T10:32:17.156Z,23.38
2019-02-25T10:32:56.173Z,23.88
2019-02-25T10:33:56.223Z,22.56
2019-02-25T10:34:56.189Z,21.25
2019-02-25T10:35:56.205Z,20.10
2019-02-25T10:36:56.223Z,20.47
2019-02-25T10:38:17.275Z,21.12
2019-02-25T10:38:56.295Z,22.25
2019-02-25T10:39:56.325Z,22.34
2019-02-25T10:40:56.304Z,23.21
2019-02-25T10:41:57.516Z,23.00
2019-02-25T10:42:56.371Z,23.88
2019-02-25T10:44:17.394Z,23.31
2019-02-25T10:44:56.400Z,22.36
2019-02-25T10:45:56.414Z,22.30
2019-02-25T10:46:56.429Z,20.90
2019-02-25T10:47:58.672Z,18.62
2019-02-25T10:48:58.714Z,17.46
2019-02-25T10:50:17.555Z,16.60
2019-02-25T10:50:56.539Z,16.32
2019-02-25T10:51:56.550Z,17.07
2019-02-25T10:53:03.283Z,17.73
2019-02-25T10:53:56.694Z,18.50
2019-02-25T10:54:58.206Z,17.28
2019-02-25T10:56:19.922Z,16.23
2019-02-25T10:56:57.885Z,16.49
2019-02-25T10:57:57.618Z,16.79
2019-02-25T10:58:57.642Z,15.88
2019-02-25T10:59:56.707Z,14.06
2019-02-25T11:00:56.720Z,13.78
2019-02-25T11:02:19.469Z,13.68
2019-02-25T11:02:58.191Z,13.46
2019-02-25T11:03:56.785Z,14.20
2019-02-25T11:04:57.712Z,15.27
2019-02-25T11:05:58.499Z,15.37
2019-02-25T11:06:58.533Z,15.10
2019-02-25T11:08:17.877Z,14.68
2019-02-25T11:08:56.916Z,15.72
2019-02-25T11:09:56.913Z,17.05
2019-02-25T11:10:57.128Z,18.77
2019-02-25T11:11:58.020Z,19.63
2019-02-25T11:12:57.712Z,20.20
2019-02-25T11:14:18.016Z,20.18
2019-02-25T11:14:57.016Z,20.67
2019-02-25T11:15:57.045Z,20.76
2019-02-25T11:16:57.092Z,21.04
2019-02-25T11:17:57.073Z,21.32
2019-02-25T11:18:58.693Z,21.70
2019-02-25T11:20:18.138Z,22.47
2019-02-25T11:20:58.863Z,22.28
2019-02-25T11:21:57.173Z,22.56
2019-02-25T11:22:57.196Z,22.08
2019-02-25T11:23:59.053Z,22.47
2019-02-25T11:24:57.741Z,22.94
2019-02-25T11:26:18.273Z,23.14
2019-02-25T11:26:58.908Z,22.76
2019-02-25T11:27:57.320Z,23.03
2019-02-25T11:28:57.319Z,23.32
2019-02-25T11:29:57.352Z,24.01
2019-02-25T11:30:57.365Z,23.13
2019-02-25T11:32:19.825Z,23.14
2019-02-25T11:32:59.488Z,23.42
2019-02-25T11:33:58.524Z,24.20
2019-02-25T11:34:57.452Z,23.33
2019-02-25T11:35:57.520Z,23.43
2019-02-25T11:36:59.406Z,23.52
2019-02-25T11:38:18.548Z,24.20
2019-02-25T11:38:58.488Z,23.91
2019-02-25T11:39:59.327Z,23.43
2019-02-25T11:40:57.645Z,23.52
2019-02-25T11:41:57.630Z,23.62
2019-02-25T11:42:57.680Z,23.83
2019-02-25T11:44:19.505Z,23.72
2019-02-25T11:44:59.884Z,23.05
2019-02-25T11:45:57.716Z,23.62
2019-02-25T11:46:57.748Z,23.54
2019-02-25T11:47:57.786Z,23.73
2019-02-25T11:48:57.804Z,23.92
2019-02-25T11:50:18.834Z,23.54
2019-02-25T11:50:57.857Z,23.36
2019-02-25T11:51:57.922Z,23.55
2019-02-25T11:52:57.911Z,24.13
2019-02-25T11:53:59.470Z,23.46
2019-02-25T11:54:57.955Z,23.46
2019-02-25T11:56:18.998Z,24.04
2019-02-25T11:56:58.076Z,23.55
2019-02-25T11:57:58.039Z,23.55
2019-02-25T11:58:58.075Z,23.93
2019-02-25T11:59:58.101Z,23.46
2019-02-25T12:00:58.126Z,23.65
2019-02-25T12:02:25.665Z,23.93
2019-02-25T12:02:58.198Z,24.14
2019-02-25T12:03:58.189Z,24.22
2019-02-25T12:04:58.229Z,24.52
2019-02-25T12:05:58.266Z,24.51
2019-02-25T12:06:58.408Z,24.03
2019-02-25T12:08:19.316Z,24.03
2019-02-25T12:08:58.353Z,24.43
2019-02-25T12:09:58.362Z,24.43
2019-02-25T12:10:58.385Z,24.04
2019-02-25T12:11:58.411Z,23.94
2019-02-25T12:12:58.440Z,23.10
2019-02-25T12:14:19.472Z,21.79
2019-02-25T12:14:58.469Z,20.83
2019-02-25T12:15:58.504Z,20.90
2019-02-25T12:16:58.526Z,22.14
2019-02-25T12:17:58.572Z,23.19
2019-02-25T12:18:58.606Z,24.14
2019-02-25T12:20:19.673Z,23.56
2019-02-25T12:20:58.646Z,24.03
2019-02-25T12:21:58.694Z,24.41
2019-02-25T12:22:58.658Z,24.22
2019-02-25T12:23:58.699Z,24.41
2019-02-25T12:24:58.710Z,24.61
2019-02-25T12:26:19.774Z,25.67
2019-02-25T12:26:58.761Z,24.40
2019-02-25T12:27:58.810Z,24.99
2019-02-25T12:28:58.841Z,25.07
2019-02-25T12:29:58.832Z,24.40
2019-02-25T12:30:58.865Z,24.79
2019-02-25T12:32:19.890Z,24.80
2019-02-25T12:32:58.904Z,25.18
2019-02-25T12:33:58.935Z,25.07
2019-02-25T12:34:58.947Z,25.07
2019-02-25T12:35:58.961Z,25.76
2019-02-25T12:36:58.996Z,25.47
2019-02-25T12:38:20.051Z,25.18
2019-02-25T12:38:59.177Z,24.90
2019-02-25T12:39:59.066Z,26.42
2019-02-25T12:40:59.095Z,26.05
2019-02-25T12:41:59.100Z,25.85
2019-02-25T12:42:59.133Z,25.76
2019-02-25T12:44:20.178Z,25.28
2019-02-25T12:44:59.180Z,25.17
2019-02-25T12:45:59.204Z,26.23
2019-02-25T12:46:59.217Z,26.05
2019-02-25T12:47:59.240Z,26.23
2019-02-25T12:48:59.289Z,25.17
2019-02-25T12:50:20.303Z,25.28
2019-02-25T12:50:59.318Z,25.56
2019-02-25T12:51:59.334Z,25.56
2019-02-25T12:52:59.358Z,25.27
2019-02-25T12:53:59.385Z,25.84
2019-02-25T12:54:59.408Z,25.65
2019-02-25T12:56:20.442Z,26.24
2019-02-25T12:56:59.444Z,25.94
2019-02-25T12:57:59.465Z,26.04
2019-02-25T12:58:59.494Z,26.13
2019-02-25T12:59:59.524Z,25.84
2019-02-25T13:00:59.620Z,26.04
2019-02-25T13:02:20.762Z,25.85
2019-02-25T13:02:59.576Z,25.85
2019-02-25T13:03:59.598Z,26.24
2019-02-25T13:04:59.628Z,25.85
2019-02-25T13:06:01.475Z,25.76
2019-02-25T13:06:59.677Z,26.24
2019-02-25T13:08:20.714Z,26.62
2019-02-25T13:08:59.721Z,26.34
2019-02-25T13:09:59.734Z,26.42
2019-02-25T13:10:59.755Z,26.42
2019-02-25T13:11:59.791Z,26.23
2019-02-25T13:12:59.840Z,26.05
2019-02-25T13:14:20.852Z,26.42
2019-02-25T13:14:59.841Z,26.92
2019-02-25T13:15:59.884Z,27.49
2019-02-25T13:16:59.894Z,27.69
2019-02-25T13:18:00.270Z,27.01
2019-02-25T13:18:59.935Z,26.43
2019-02-25T13:20:20.984Z,26.53
2019-02-25T13:20:59.974Z,26.72
2019-02-25T13:22:00.002Z,26.62
2019-02-25T13:23:00.023Z,26.82
2019-02-25T13:24:01.898Z,26.92
2019-02-25T13:25:00.834Z,27.30
2019-02-25T13:26:21.101Z,27.48
2019-02-25T13:27:01.008Z,27.38
2019-02-25T13:28:02.052Z,27.39
2019-02-25T13:29:00.174Z,27.49
2019-02-25T13:30:00.302Z,28.16
2019-02-25T13:31:01.045Z,27.87
2019-02-25T13:32:21.236Z,27.87
2019-02-25T13:33:00.265Z,28.16
2019-02-25T13:34:00.291Z,27.97
2019-02-25T13:35:00.454Z,28.07
2019-02-25T13:36:00.333Z,28.16
2019-02-25T13:37:00.356Z,27.78
2019-02-25T13:38:21.377Z,28.07
2019-02-25T13:39:00.399Z,27.69
2019-02-25T13:40:00.427Z,27.78
2019-02-25T13:41:00.442Z,27.78
2019-02-25T13:42:00.457Z,28.26
2019-02-25T13:43:00.469Z,28.07